createdAt,value
2018-08-06T00:00:28.255Z,1.77
2018-08-06T00:02:56.863Z,1.13
2018-08-06T00:05:25.409Z,1.43
2018-08-06T00:07:53.890Z,0.80
2018-08-06T00:10:24.046Z,0.93
2018-08-06T00:12:52.641Z,0.97
2018-08-06T00:15:21.243Z,1.07
2018-08-06T00:17:49.739Z,1.37
2018-08-06T00:20:18.314Z,0.90
2018-08-06T00:22:46.710Z,1.43
2018-08-06T00:25:16.123Z,0.90
2018-08-06T00:27:44.890Z,0.90
2018-08-06T00:30:14.711Z,0.83
2018-08-06T00:32:44.503Z,0.83
2018-08-06T00:35:13.487Z,0.90
2018-08-06T00:37:41.895Z,0.90
2018-08-06T00:40:14.390Z,0.97
2018-08-06T00:42:43.595Z,1.27
2018-08-06T00:45:15.290Z,0.70
2018-08-06T00:47:44.040Z,1.30
2018-08-06T00:50:12.903Z,1.00
2018-08-06T00:52:41.438Z,1.13
2018-08-06T00:55:12.219Z,1.80
2018-08-06T00:57:40.904Z,1.13
2018-08-06T01:00:12.244Z,1.30
2018-08-06T01:02:40.867Z,0.90
2018-08-06T01:05:10.959Z,0.90
2018-08-06T01:07:40.071Z,1.47
2018-08-06T01:10:10.426Z,1.20
2018-08-06T01:12:40.024Z,1.13
2018-08-06T01:15:09.772Z,1.63
2018-08-06T01:17:38.191Z,1.10
2018-08-06T01:20:08.595Z,0.93
2018-08-06T01:22:37.008Z,1.07
2018-08-06T01:25:05.986Z,1.10
2018-08-06T01:27:35.235Z,1.30
2018-08-06T01:30:04.211Z,0.97
2018-08-06T01:32:32.624Z,1.40
2018-08-06T01:35:01.343Z,1.53
2018-08-06T01:37:29.851Z,1.40
2018-08-06T01:39:58.234Z,1.43
2018-08-06T01:42:27.015Z,1.00
2018-08-06T01:44:55.490Z,1.30
2018-08-06T01:47:23.867Z,1.13
2018-08-06T01:49:52.355Z,0.97
2018-08-06T01:52:20.751Z,1.20
2018-08-06T01:54:49.199Z,0.87
2018-08-06T01:57:17.732Z,1.13
2018-08-06T01:59:46.311Z,1.37
2018-08-06T02:02:14.903Z,1.43
2018-08-06T02:04:43.339Z,1.27
2018-08-06T02:07:11.828Z,1.53
2018-08-06T02:09:40.258Z,1.63
2018-08-06T02:12:09.058Z,1.00
2018-08-06T02:14:37.715Z,1.37
2018-08-06T02:17:06.291Z,1.50
2018-08-06T02:19:34.822Z,1.60
2018-08-06T02:22:03.375Z,1.23
2018-08-06T02:24:31.905Z,1.43
2018-08-06T02:27:00.397Z,1.10
2018-08-06T02:29:28.971Z,1.37
2018-08-06T02:31:57.599Z,1.27
2018-08-06T02:34:26.075Z,1.77
2018-08-06T02:36:54.543Z,1.20
2018-08-06T02:39:23.035Z,1.33
2018-08-06T02:41:51.699Z,1.83
2018-08-06T02:44:20.155Z,1.50
2018-08-06T02:46:48.655Z,1.63
2018-08-06T02:49:17.151Z,1.90
2018-08-06T02:51:45.630Z,2.10
2018-08-06T02:54:14.101Z,1.53
2018-08-06T02:56:42.890Z,1.63
2018-08-06T02:59:11.379Z,1.70
2018-08-06T03:01:39.875Z,1.63
2018-08-06T03:04:08.854Z,1.77
2018-08-06T03:06:37.391Z,2.03
2018-08-06T03:09:09.239Z,1.33
2018-08-06T03:11:37.890Z,1.60
2018-08-06T03:14:06.451Z,1.17
2018-08-06T03:16:35.116Z,1.00
2018-08-06T03:19:03.615Z,1.60
2018-08-06T03:21:32.129Z,1.40
2018-08-06T03:24:00.992Z,1.10
2018-08-06T03:26:29.543Z,1.60
2018-08-06T03:28:58.040Z,1.17
2018-08-06T03:31:26.746Z,1.73
2018-08-06T03:33:55.359Z,1.07
2018-08-06T03:36:23.855Z,1.43
2018-08-06T03:38:52.590Z,1.60
2018-08-06T03:41:21.028Z,1.40
2018-08-06T03:43:49.496Z,1.73
2018-08-06T03:46:18.179Z,1.30
2018-08-06T03:48:46.691Z,1.57
2018-08-06T03:51:15.139Z,1.20
2018-08-06T03:53:43.967Z,2.00
2018-08-06T03:56:12.398Z,1.63
2018-08-06T03:58:40.799Z,1.47
2018-08-06T04:01:09.452Z,1.20
2018-08-06T04:03:37.966Z,1.07
2018-08-06T04:06:06.447Z,1.50
2018-08-06T04:08:34.972Z,1.53
2018-08-06T04:11:03.437Z,2.10
2018-08-06T04:13:31.994Z,1.50
2018-08-06T04:16:00.526Z,1.70
2018-08-06T04:18:28.982Z,2.00
2018-08-06T04:20:57.367Z,2.00
2018-08-06T04:23:25.895Z,1.93
2018-08-06T04:25:54.555Z,1.90
2018-08-06T04:28:22.995Z,1.47
2018-08-06T04:30:51.572Z,1.67
2018-08-06T04:33:19.999Z,1.60
2018-08-06T04:35:48.550Z,1.70
2018-08-06T04:38:17.163Z,1.60
2018-08-06T04:40:45.612Z,1.43
2018-08-06T04:43:13.991Z,2.17
2018-08-06T04:45:42.555Z,2.20
2018-08-06T04:48:10.943Z,1.60
2018-08-06T04:50:39.358Z,2.73
2018-08-06T04:53:07.932Z,1.60
2018-08-06T04:55:36.451Z,1.60
2018-08-06T04:58:04.979Z,2.17
2018-08-06T05:00:33.919Z,3.00
2018-08-06T05:03:02.367Z,2.67
2018-08-06T05:05:30.883Z,3.00
2018-08-06T05:07:59.762Z,2.47
2018-08-06T05:10:28.560Z,2.37
2018-08-06T05:12:57.057Z,2.10
2018-08-06T05:15:25.523Z,2.63
2018-08-06T05:17:54.073Z,2.40
2018-08-06T05:20:22.540Z,2.57
2018-08-06T05:22:51.183Z,2.00
2018-08-06T05:25:19.623Z,1.73
2018-08-06T05:27:48.083Z,2.40
2018-08-06T05:30:16.654Z,3.10
2018-08-06T05:32:45.088Z,2.90
2018-08-06T05:35:13.637Z,3.53
2018-08-06T05:37:42.455Z,2.30
2018-08-06T05:40:11.019Z,2.00
2018-08-06T05:42:39.459Z,2.47
2018-08-06T05:45:09.264Z,2.53
2018-08-06T05:47:38.060Z,2.73
2018-08-06T05:50:09.055Z,2.70
2018-08-06T05:52:37.613Z,2.10
2018-08-06T05:55:07.206Z,2.40
2018-08-06T05:57:35.723Z,2.23
2018-08-06T06:00:05.763Z,2.53
2018-08-06T06:02:34.339Z,3.00
2018-08-06T06:05:03.054Z,2.47
2018-08-06T06:07:31.496Z,1.83
2018-08-06T06:10:00.139Z,2.67
2018-08-06T06:12:28.955Z,2.00
2018-08-06T06:14:57.359Z,2.10
2018-08-06T06:17:25.844Z,2.47
2018-08-06T06:19:54.356Z,1.73
2018-08-06T06:22:22.878Z,2.23
2018-08-06T06:24:51.328Z,2.17
2018-08-06T06:27:20.171Z,2.03
2018-08-06T06:29:48.581Z,2.00
2018-08-06T06:32:17.047Z,2.07
2018-08-06T06:34:45.761Z,1.97
2018-08-06T06:37:14.171Z,2.07
2018-08-06T06:39:42.613Z,2.13
2018-08-06T06:42:11.286Z,1.77
2018-08-06T06:44:39.847Z,1.77
2018-08-06T06:47:08.295Z,1.70
2018-08-06T06:49:36.730Z,1.73
2018-08-06T06:52:05.242Z,2.00
2018-08-06T06:54:33.822Z,2.50
2018-08-06T06:57:02.579Z,1.77
2018-08-06T06:59:31.021Z,1.50
2018-08-06T07:01:59.632Z,1.47
2018-08-06T07:04:28.473Z,2.10
2018-08-06T07:06:56.938Z,1.43
2018-08-06T07:09:25.340Z,2.37
2018-08-06T07:11:53.943Z,1.97
2018-08-06T07:14:22.491Z,1.80
2018-08-06T07:16:50.997Z,2.53
2018-08-06T07:19:19.470Z,1.90
2018-08-06T07:21:47.887Z,2.00
2018-08-06T07:24:16.539Z,2.00
2018-08-06T07:26:45.514Z,2.23
2018-08-06T07:29:13.922Z,1.70
2018-08-06T07:31:42.471Z,2.30
2018-08-06T07:34:11.082Z,2.13
2018-08-06T07:36:39.772Z,2.37
2018-08-06T07:39:10.300Z,1.93
2018-08-06T07:41:38.826Z,2.00
2018-08-06T07:44:07.387Z,1.90
2018-08-06T07:46:36.643Z,1.40
2018-08-06T07:49:05.383Z,1.97
2018-08-06T07:51:33.895Z,1.83
2018-08-06T07:54:02.435Z,2.30
2018-08-06T07:56:30.915Z,2.23
2018-08-06T07:58:59.403Z,1.93
2018-08-06T08:01:27.859Z,2.30
2018-08-06T08:03:56.327Z,1.93
2018-08-06T08:06:24.867Z,1.93
2018-08-06T08:08:53.816Z,1.90
2018-08-06T08:11:22.220Z,2.07
2018-08-06T08:13:50.663Z,1.83
2018-08-06T08:16:19.155Z,2.30
2018-08-06T08:18:47.683Z,1.57
2018-08-06T08:21:16.131Z,2.03
2018-08-06T08:23:44.647Z,2.33
2018-08-06T08:26:13.165Z,2.47
2018-08-06T08:28:41.560Z,1.70
2018-08-06T08:31:10.038Z,1.90
2018-08-06T08:33:38.498Z,1.90
2018-08-06T08:36:07.311Z,1.97
2018-08-06T08:38:36.040Z,2.03
2018-08-06T08:41:04.595Z,2.00
2018-08-06T08:43:33.082Z,2.47
2018-08-06T08:46:01.791Z,2.10
2018-08-06T08:48:30.180Z,2.20
2018-08-06T08:50:58.675Z,2.30
2018-08-06T08:53:27.107Z,2.07
2018-08-06T08:55:55.647Z,2.40
2018-08-06T08:58:24.176Z,2.37
2018-08-06T09:00:52.849Z,2.63
2018-08-06T09:03:21.343Z,2.33
2018-08-06T09:05:49.960Z,1.80
2018-08-06T09:08:18.903Z,2.20
2018-08-06T09:10:47.350Z,2.50
2018-08-06T09:13:15.789Z,2.23
2018-08-06T09:15:44.392Z,2.33
2018-08-06T09:18:12.929Z,2.30
2018-08-06T09:20:41.394Z,2.50
2018-08-06T09:23:09.943Z,2.17
2018-08-06T09:25:38.537Z,2.47
2018-08-06T09:28:07.131Z,1.90
2018-08-06T09:30:35.847Z,2.10
2018-08-06T09:33:04.311Z,1.70
2018-08-06T09:35:32.771Z,2.10
2018-08-06T09:38:01.439Z,2.60
2018-08-06T09:40:30.031Z,1.93
2018-08-06T09:42:58.500Z,2.30
2018-08-06T09:45:27.221Z,2.43
2018-08-06T09:47:55.670Z,2.83
2018-08-06T09:50:24.143Z,2.10
2018-08-06T09:52:53.510Z,2.20
2018-08-06T09:55:24.722Z,1.70
2018-08-06T09:57:53.774Z,2.07
2018-08-06T10:00:28.204Z,2.13
2018-08-06T10:03:00.883Z,2.23
2018-08-06T10:05:29.693Z,2.00
2018-08-06T10:07:58.177Z,2.60
2018-08-06T10:10:26.907Z,2.17
2018-08-06T10:12:55.335Z,2.63
2018-08-06T10:15:23.771Z,3.10
2018-08-06T10:17:53.619Z,2.30
2018-08-06T10:20:23.424Z,2.50
2018-08-06T10:22:51.878Z,2.50
2018-08-06T10:25:20.375Z,2.40
2018-08-06T10:27:49.112Z,2.40
2018-08-06T10:30:18.985Z,2.07
2018-08-06T10:32:47.547Z,3.20
2018-08-06T10:35:17.559Z,2.23
2018-08-06T10:37:46.047Z,2.40
2018-08-06T10:40:20.233Z,2.40
2018-08-06T10:42:48.611Z,2.57
2018-08-06T10:45:18.151Z,2.07
2018-08-06T10:47:47.591Z,2.40
2018-08-06T10:50:16.075Z,2.57
2018-08-06T10:52:44.583Z,2.17
2018-08-06T10:55:13.531Z,2.07
2018-08-06T10:57:43.410Z,2.47
2018-08-06T11:00:16.045Z,3.13
2018-08-06T11:02:44.903Z,2.23
2018-08-06T11:05:14.483Z,2.47
2018-08-06T11:07:43.327Z,2.40
2018-08-06T11:10:13.775Z,2.67
2018-08-06T11:12:42.297Z,2.53
2018-08-06T11:15:14.440Z,2.77
2018-08-06T11:17:43.012Z,1.90
2018-08-06T11:20:12.773Z,2.93
2018-08-06T11:22:41.390Z,2.23
2018-08-06T11:25:11.447Z,2.43
2018-08-06T11:27:39.970Z,2.80
2018-08-06T11:30:10.989Z,2.23
2018-08-06T11:32:39.399Z,2.50
2018-08-06T11:35:08.749Z,3.50
2018-08-06T11:37:37.389Z,2.40
2018-08-06T11:40:07.072Z,2.80
2018-08-06T11:42:35.739Z,2.87
2018-08-06T11:45:04.489Z,2.43
2018-08-06T11:47:33.139Z,2.83
2018-08-06T11:50:01.545Z,2.70
2018-08-06T11:52:30.303Z,2.50
2018-08-06T11:54:58.795Z,3.00
2018-08-06T11:57:27.271Z,2.90
2018-08-06T11:59:55.995Z,2.80
2018-08-06T12:02:24.596Z,2.80
2018-08-06T12:04:53.106Z,3.07
2018-08-06T12:07:22.078Z,2.50
2018-08-06T12:09:50.508Z,2.60
2018-08-06T12:12:19.439Z,2.70
2018-08-06T12:14:48.131Z,2.90
2018-08-06T12:17:17.338Z,2.73
2018-08-06T12:19:45.803Z,2.50
2018-08-06T12:22:14.471Z,2.60
2018-08-06T12:24:42.886Z,2.87
2018-08-06T12:27:11.430Z,2.70
2018-08-06T12:29:40.164Z,2.70
2018-08-06T12:32:08.736Z,2.90
2018-08-06T12:34:37.136Z,3.10
2018-08-06T12:37:05.596Z,2.93
2018-08-06T12:39:34.095Z,2.50
2018-08-06T12:42:02.537Z,3.47
2018-08-06T12:44:31.104Z,3.23
2018-08-06T12:46:59.538Z,2.83
2018-08-06T12:49:27.927Z,2.67
2018-08-06T12:51:56.379Z,3.17
2018-08-06T12:54:24.819Z,3.80
2018-08-06T12:56:53.262Z,2.63
2018-08-06T12:59:21.991Z,2.60
2018-08-06T13:01:50.424Z,3.40
2018-08-06T13:04:18.938Z,3.37
2018-08-06T13:06:47.679Z,3.20
2018-08-06T13:09:16.060Z,2.90
2018-08-06T13:11:44.495Z,2.90
2018-08-06T13:14:13.363Z,3.10
2018-08-06T13:16:41.895Z,3.43
2018-08-06T13:19:10.435Z,4.07
2018-08-06T13:21:39.039Z,2.40
2018-08-06T13:24:07.575Z,3.33
2018-08-06T13:26:35.986Z,3.90
2018-08-06T13:29:04.592Z,3.20
2018-08-06T13:31:33.039Z,3.07
2018-08-06T13:34:01.479Z,3.10
2018-08-06T13:36:29.975Z,2.80
2018-08-06T13:38:58.475Z,3.90
2018-08-06T13:41:26.960Z,3.50
2018-08-06T13:43:55.487Z,3.57
2018-08-06T13:46:23.979Z,3.37
2018-08-06T13:48:52.451Z,3.80
2018-08-06T13:51:21.197Z,4.10
2018-08-06T13:53:49.759Z,4.00
2018-08-06T13:56:18.167Z,3.43
2018-08-06T13:58:46.637Z,4.43
2018-08-06T14:01:15.210Z,4.30
2018-08-06T14:03:43.686Z,3.60
2018-08-06T14:06:13.379Z,3.00
2018-08-06T14:08:41.852Z,3.67
2018-08-06T14:11:10.339Z,3.90
2018-08-06T14:13:38.743Z,4.00
2018-08-06T14:16:07.560Z,4.40
2018-08-06T14:18:36.035Z,4.40
2018-08-06T14:21:04.739Z,3.80
2018-08-06T14:23:33.177Z,4.07
2018-08-06T14:26:01.726Z,4.17
2018-08-06T14:28:30.211Z,4.53
2018-08-06T14:30:58.655Z,3.70
2018-08-06T14:33:27.147Z,4.00
2018-08-06T14:35:55.682Z,3.47
2018-08-06T14:38:24.315Z,4.33
2018-08-06T14:40:52.715Z,4.33
2018-08-06T14:43:21.287Z,4.60
2018-08-06T14:45:49.767Z,3.70
2018-08-06T14:48:18.281Z,3.40
2018-08-06T14:50:46.901Z,3.93
2018-08-06T14:53:15.363Z,3.73
2018-08-06T14:55:43.843Z,3.80
2018-08-06T14:58:12.343Z,4.30
2018-08-06T15:00:40.803Z,5.07
2018-08-06T15:03:09.295Z,4.37
2018-08-06T15:05:37.730Z,4.60
2018-08-06T15:08:06.352Z,4.27
2018-08-06T15:10:34.894Z,3.87
2018-08-06T15:13:03.631Z,4.30
2018-08-06T15:15:32.109Z,3.50
2018-08-06T15:18:00.596Z,4.33
2018-08-06T15:20:29.247Z,3.90
2018-08-06T15:22:57.644Z,4.37
2018-08-06T15:25:26.210Z,4.37
2018-08-06T15:27:54.901Z,3.63
2018-08-06T15:30:23.371Z,4.10
2018-08-06T15:32:51.783Z,3.80
2018-08-06T15:35:20.466Z,4.37
2018-08-06T15:37:48.944Z,4.27
2018-08-06T15:40:19.253Z,4.40
2018-08-06T15:42:47.902Z,3.77
2018-08-06T15:45:16.406Z,4.10
2018-08-06T15:47:45.815Z,4.67
2018-08-06T15:50:18.534Z,3.90
2018-08-06T15:52:47.196Z,4.40
2018-08-06T15:55:15.711Z,4.03
2018-08-06T15:57:44.444Z,4.30
2018-08-06T16:00:15.739Z,4.70
2018-08-06T16:02:44.692Z,3.67
2018-08-06T16:05:13.527Z,3.63
2018-08-06T16:07:41.949Z,3.40
2018-08-06T16:10:11.687Z,3.97
2018-08-06T16:12:40.175Z,3.80
2018-08-06T16:15:10.586Z,4.40
2018-08-06T16:17:40.168Z,3.93
2018-08-06T16:20:10.899Z,3.77
2018-08-06T16:22:39.708Z,4.63
2018-08-06T16:25:09.096Z,4.00
2018-08-06T16:27:37.531Z,3.60
2018-08-06T16:30:13.787Z,4.43
2018-08-06T16:32:42.604Z,4.87
2018-08-06T16:35:11.026Z,4.00
2018-08-06T16:37:39.911Z,4.57
2018-08-06T16:40:09.391Z,4.17
2018-08-06T16:42:37.802Z,4.33
2018-08-06T16:45:07.515Z,4.50
2018-08-06T16:47:36.485Z,4.20
2018-08-06T16:50:05.671Z,4.37
2018-08-06T16:52:34.243Z,4.50
2018-08-06T16:55:02.691Z,4.57
2018-08-06T16:57:31.271Z,4.93
2018-08-06T17:00:00.123Z,4.50
2018-08-06T17:02:28.911Z,4.50
2018-08-06T17:04:58.093Z,4.80
2018-08-06T17:07:26.631Z,4.23
2018-08-06T17:09:55.311Z,4.70
2018-08-06T17:12:23.688Z,3.83
2018-08-06T17:14:53.364Z,4.27
2018-08-06T17:17:21.900Z,4.00
2018-08-06T17:19:50.299Z,3.90
2018-08-06T17:22:18.784Z,4.67
2018-08-06T17:24:47.310Z,4.47
2018-08-06T17:27:15.740Z,4.40
2018-08-06T17:29:44.215Z,4.37
2018-08-06T17:32:12.902Z,4.00
2018-08-06T17:34:41.414Z,4.93
2018-08-06T17:37:10.219Z,4.57
2018-08-06T17:39:38.643Z,4.47
2018-08-06T17:42:07.063Z,5.37
2018-08-06T17:44:35.543Z,4.50
2018-08-06T17:47:04.043Z,4.60
2018-08-06T17:49:32.500Z,4.93
2018-08-06T17:52:05.472Z,4.87
2018-08-06T17:54:33.928Z,3.93
2018-08-06T17:57:02.383Z,5.50
2018-08-06T17:59:31.313Z,4.77
2018-08-06T18:01:59.723Z,4.07
2018-08-06T18:04:28.187Z,4.80
2018-08-06T18:06:56.711Z,4.53
2018-08-06T18:09:25.187Z,4.90
2018-08-06T18:11:53.912Z,3.63
2018-08-06T18:14:22.544Z,4.63
2018-08-06T18:16:51.112Z,4.10
2018-08-06T18:19:19.543Z,5.40
2018-08-06T18:21:48.219Z,4.20
2018-08-06T18:24:16.837Z,5.37
2018-08-06T18:26:45.243Z,4.23
2018-08-06T18:29:14.015Z,5.40
2018-08-06T18:31:43.082Z,5.90
2018-08-06T18:34:11.473Z,5.23
2018-08-06T18:36:39.997Z,4.67
2018-08-06T18:39:10.410Z,4.60
2018-08-06T18:41:38.884Z,5.47
2018-08-06T18:44:07.642Z,4.30
2018-08-06T18:46:36.093Z,5.00
2018-08-06T18:49:04.811Z,4.93
2018-08-06T18:51:33.296Z,4.73
2018-08-06T18:54:01.760Z,4.77
2018-08-06T18:56:30.395Z,4.17
2018-08-06T18:59:00.359Z,4.53
2018-08-06T19:01:28.883Z,4.10
2018-08-06T19:03:57.476Z,4.03
2018-08-06T19:06:26.275Z,5.27
2018-08-06T19:08:59.890Z,5.60
2018-08-06T19:11:28.999Z,4.90
2018-08-06T19:14:03.280Z,4.77
2018-08-06T19:16:32.020Z,4.77
2018-08-06T19:19:05.992Z,4.53
2018-08-06T19:21:34.740Z,4.80
2018-08-06T19:24:08.396Z,5.70
2018-08-06T19:26:37.163Z,4.17
2018-08-06T19:29:05.777Z,4.57
2018-08-06T19:31:34.733Z,4.70
2018-08-06T19:34:03.910Z,4.83
2018-08-06T19:36:37.880Z,4.77
2018-08-06T19:39:09.343Z,5.27
2018-08-06T19:41:38.649Z,4.60
2018-08-06T19:44:08.397Z,4.57
2018-08-06T19:46:37.138Z,5.37
2018-08-06T19:49:11.154Z,5.90
2018-08-06T19:51:39.916Z,5.17
2018-08-06T19:54:08.623Z,5.20
2018-08-06T19:56:37.145Z,6.33
2018-08-06T19:59:06.402Z,4.30
2018-08-06T20:01:34.967Z,5.60
2018-08-06T20:04:03.983Z,5.20
2018-08-06T20:06:33.252Z,5.37
2018-08-06T20:09:02.107Z,5.80
2018-08-06T20:11:30.803Z,4.63
2018-08-06T20:13:59.364Z,5.60
2018-08-06T20:16:27.960Z,6.10
2018-08-06T20:18:56.482Z,6.07
2018-08-06T20:21:25.184Z,5.30
2018-08-06T20:23:53.632Z,5.13
2018-08-06T20:26:22.187Z,5.40
2018-08-06T20:28:51.020Z,5.33
2018-08-06T20:31:19.601Z,4.57
2018-08-06T20:33:48.119Z,6.27
2018-08-06T20:36:17.099Z,5.40
2018-08-06T20:38:45.559Z,5.90
2018-08-06T20:41:19.679Z,6.07
2018-08-06T20:43:48.132Z,5.80
2018-08-06T20:46:19.564Z,4.90
2018-08-06T20:48:48.377Z,6.00
2018-08-06T20:51:16.902Z,5.57
2018-08-06T20:53:45.392Z,5.20
2018-08-06T20:56:13.883Z,5.63
2018-08-06T20:58:42.347Z,5.37
2018-08-06T21:01:10.752Z,5.20
2018-08-06T21:03:39.408Z,5.10
2018-08-06T21:06:07.891Z,5.70
2018-08-06T21:08:36.347Z,6.07
2018-08-06T21:11:05.130Z,5.47
2018-08-06T21:13:33.499Z,5.20
2018-08-06T21:16:01.949Z,6.10
2018-08-06T21:18:30.459Z,5.27
2018-08-06T21:20:58.956Z,4.60
2018-08-06T21:23:27.570Z,5.57
2018-08-06T21:25:56.187Z,4.97
2018-08-06T21:28:24.615Z,5.50
2018-08-06T21:30:53.090Z,6.33
2018-08-06T21:33:21.548Z,5.87
2018-08-06T21:35:49.991Z,6.20
2018-08-06T21:38:18.419Z,5.30
2018-08-06T21:40:47.312Z,5.60
2018-08-06T21:43:15.791Z,5.50
2018-08-06T21:45:44.345Z,5.47
2018-08-06T21:48:13.167Z,5.23
2018-08-06T21:50:41.718Z,5.87
2018-08-06T21:53:10.228Z,5.20
2018-08-06T21:55:38.991Z,6.00
2018-08-06T21:58:07.375Z,6.30
2018-08-06T22:00:40.305Z,5.73
2018-08-06T22:03:14.387Z,5.60
2018-08-06T22:05:43.054Z,5.63
2018-08-06T22:08:11.715Z,4.93
2018-08-06T22:10:40.363Z,5.17
2018-08-06T22:13:09.759Z,5.40
2018-08-06T22:15:38.419Z,5.47
2018-08-06T22:18:08.160Z,5.03
2018-08-06T22:20:36.611Z,5.90
2018-08-06T22:23:05.270Z,4.93
2018-08-06T22:25:33.700Z,5.67
2018-08-06T22:28:02.114Z,6.37
2018-08-06T22:30:30.615Z,6.70
2018-08-06T22:32:59.062Z,5.33
2018-08-06T22:35:27.766Z,5.67
2018-08-06T22:37:56.223Z,5.00
2018-08-06T22:40:24.710Z,5.20
2018-08-06T22:42:53.202Z,5.07
2018-08-06T22:45:21.667Z,4.77
2018-08-06T22:47:50.175Z,6.27
2018-08-06T22:50:18.835Z,5.30
2018-08-06T22:52:47.371Z,6.70
2018-08-06T22:55:15.863Z,5.80
2018-08-06T22:57:44.336Z,5.47
2018-08-06T23:00:15.719Z,4.60
2018-08-06T23:02:44.651Z,4.60
2018-08-06T23:05:14.822Z,6.43
2018-08-06T23:07:43.355Z,5.90
2018-08-06T23:10:13.541Z,5.13
2018-08-06T23:12:42.069Z,4.73
2018-08-06T23:15:13.628Z,4.73
2018-08-06T23:17:42.362Z,4.63
2018-08-06T23:20:11.072Z,5.60
2018-08-06T23:22:39.991Z,5.17
2018-08-06T23:25:08.660Z,4.30
2018-08-06T23:27:38.072Z,5.30
2018-08-06T23:30:10.180Z,4.33
2018-08-06T23:32:38.843Z,6.03
2018-08-06T23:35:08.735Z,5.00
2018-08-06T23:37:37.299Z,5.03
2018-08-06T23:40:06.683Z,5.40
2018-08-06T23:42:35.368Z,5.03
2018-08-06T23:45:04.634Z,5.63
2018-08-06T23:47:33.159Z,5.03
2018-08-06T23:50:01.677Z,5.73
2018-08-06T23:52:30.164Z,6.03
2018-08-06T23:54:58.741Z,5.20
2018-08-06T23:57:28.084Z,4.50
2018-08-06T23:59:56.820Z,4.87
